메인 페이지
METAR-TAF:

METAR-TAF

공항 :

포스두이구아수, 파라나, 브라질

위도: 25-31S, 경도: 054-35W, 고도: 180m

현재 날씨관측

예보는 1 시간 9분 전, 15:00시(UTC)에 발표되었습니다.
북서11kt
온도 33°C
습도 56%
기압 1014 hPa
시정 10km 이상
고도 3000ft 상공 구름 조금, 타워링 적운.

METAR: SBFI 181500Z 32011KT 9999 FEW030TCU 33/23 Q1014

시각: 14:09 (16:09 UTC)

예보

예보는 7 시간 54분 전, 08:15시(UTC)에 발표되었습니다.
예보 대상 시간: 18일 12시부터 19일 12시까지 (UTC)
8kt
시정 10km 이상
고도 3500ft 상공 구름 조금
전환 중
18일 20시부터 18일 22시까지 (UTC)
고도 4000ft 상공 구름 조금, 타워링 적운.
확률 40% :
일시적
18일 22시부터 19일 06시까지 (UTC)
고도 4000ft 상공 구름 조금, 적란운.
뇌우
전환 중
19일 06시부터 19일 시까지 (UTC)
동남동6kt
고도 3000ft 상공 구름 조금

TAF: SBFI 180815Z 1812/1912 01008KT 9999 FEW035 TX36/1818Z TN23/1908Z BECMG 1820/1822 FEW040TCU PROB40 TEMPO 1822/1906 TS FEW040CB BECMG 1906/19 08 12006KT FEW030 RMK PDW

4,000개 이상의 공항 관측 자료 및 예보 (METAR 및 TAF 보고).

지도상에서 검색 가능한 기상관측소가 노란 점과 빨간 점으로 표시되어 있습니다.

기상관측소 명을 보려면 표시 위로 마우스를 이동하세요.

날씨 관측과 예보를 보려면 클릭하세요.

지도 변경 : 확대하려면 엑스 표시가 있는 녹색 버튼, 축소하려면 빼기 표시가 있는 녹색 버튼, 다음 페이지의 지도를 보려면 녹색 화살표를 클릭하세요.


METAR-TAF: